<?xml version="1.0" encoding="UTF-8" standalone="no" ?>
<gpx xmlns="http://www.topografix.com/GPX/1/1" xmlns:xsi="http://www.w3.org/2001/XMLSchema-instance" xsi:schemaLocation="http://www.topografix.com/GPX/1/1 http://www.topografix.com/GPX/1/1/gpx.xsd" version="1.1" creator="VisuGPX - https://www.visugpx.com">
  <metadata>
    <name>Ste Marie aux Mines - Graine Johé</name>
  </metadata>
  <wpt lat="48.24061" lon="7.14253">
    <ele>611</ele>
    <name><![CDATA[Point de passage 1]]></name>
    <type><![CDATA[GENERIC]]></type>
  </wpt>
  <wpt lat="48.24107" lon="7.14238">
    <ele>618</ele>
    <name><![CDATA[Point de passage 2]]></name>
    <type><![CDATA[GENERIC]]></type>
  </wpt>
  <trk>
    <name><![CDATA[Graine Johé 1 (tranquille)]]></name>
    <trkseg>
      <trkpt lat="48.24061" lon="7.14253">
        <ele>611</ele>
        <time>2026-07-09T10:02:36.000Z</time>
      </trkpt>
      <trkpt lat="48.2406" lon="7.14246">
        <ele>611</ele>
        <time>2026-07-09T10:02:42.000Z</time>
      </trkpt>
      <trkpt lat="48.24059" lon="7.14247">
        <ele>611</ele>
        <time>2026-07-09T10:02:44.000Z</time>
      </trkpt>
      <trkpt lat="48.24047" lon="7.14256">
        <ele>609</ele>
        <time>2026-07-09T10:03:00.000Z</time>
      </trkpt>
      <trkpt lat="48.24042" lon="7.14271">
        <ele>608</ele>
        <time>2026-07-09T10:03:13.000Z</time>
      </trkpt>
      <trkpt lat="48.24043" lon="7.14279">
        <ele>609</ele>
        <time>2026-07-09T10:03:29.000Z</time>
      </trkpt>
      <trkpt lat="48.24079" lon="7.14322">
        <ele>609</ele>
        <time>2026-07-09T10:04:22.000Z</time>
      </trkpt>
      <trkpt lat="48.24114" lon="7.14343">
        <ele>606</ele>
        <time>2026-07-09T10:05:05.000Z</time>
      </trkpt>
      <trkpt lat="48.24187" lon="7.1441">
        <ele>596</ele>
        <time>2026-07-09T10:06:44.000Z</time>
      </trkpt>
      <trkpt lat="48.24196" lon="7.14422">
        <ele>594</ele>
        <time>2026-07-09T10:06:57.000Z</time>
      </trkpt>
      <trkpt lat="48.24209" lon="7.14454">
        <ele>593</ele>
        <time>2026-07-09T10:07:26.000Z</time>
      </trkpt>
      <trkpt lat="48.24212" lon="7.14474">
        <ele>591</ele>
        <time>2026-07-09T10:07:42.000Z</time>
      </trkpt>
      <trkpt lat="48.24212" lon="7.14474">
        <ele>591</ele>
        <time>2026-07-09T10:07:42.000Z</time>
      </trkpt>
      <trkpt lat="48.24209" lon="7.14454">
        <ele>593</ele>
        <time>2026-07-09T10:08:19.000Z</time>
      </trkpt>
      <trkpt lat="48.24216" lon="7.14472">
        <ele>589</ele>
        <time>2026-07-09T10:08:34.000Z</time>
      </trkpt>
      <trkpt lat="48.24232" lon="7.14521">
        <ele>582</ele>
        <time>2026-07-09T10:09:16.000Z</time>
      </trkpt>
      <trkpt lat="48.24268" lon="7.14661">
        <ele>568</ele>
        <time>2026-07-09T10:11:11.000Z</time>
      </trkpt>
      <trkpt lat="48.24268" lon="7.14661">
        <ele>568</ele>
        <time>2026-07-09T10:11:11.000Z</time>
      </trkpt>
      <trkpt lat="48.24273" lon="7.14682">
        <ele>567</ele>
        <time>2026-07-09T10:11:28.000Z</time>
      </trkpt>
      <trkpt lat="48.24299" lon="7.14731">
        <ele>562</ele>
        <time>2026-07-09T10:12:16.000Z</time>
      </trkpt>
      <trkpt lat="48.24341" lon="7.1478">
        <ele>558</ele>
        <time>2026-07-09T10:13:17.000Z</time>
      </trkpt>
      <trkpt lat="48.24337" lon="7.14779">
        <ele>559</ele>
        <time>2026-07-09T10:13:32.000Z</time>
      </trkpt>
      <trkpt lat="48.24341" lon="7.1478">
        <ele>558</ele>
        <time>2026-07-09T10:13:37.000Z</time>
      </trkpt>
      <trkpt lat="48.24325" lon="7.14775">
        <ele>561</ele>
        <time>2026-07-09T10:14:26.000Z</time>
      </trkpt>
      <trkpt lat="48.24292" lon="7.14763">
        <ele>568</ele>
        <time>2026-07-09T10:16:18.000Z</time>
      </trkpt>
      <trkpt lat="48.24266" lon="7.14749">
        <ele>575</ele>
        <time>2026-07-09T10:18:02.000Z</time>
      </trkpt>
      <trkpt lat="48.24251" lon="7.14735">
        <ele>576</ele>
        <time>2026-07-09T10:18:33.000Z</time>
      </trkpt>
      <trkpt lat="48.24228" lon="7.1469">
        <ele>587</ele>
        <time>2026-07-09T10:21:09.000Z</time>
      </trkpt>
      <trkpt lat="48.24213" lon="7.14652">
        <ele>592</ele>
        <time>2026-07-09T10:22:34.000Z</time>
      </trkpt>
      <trkpt lat="48.24211" lon="7.1464">
        <ele>594</ele>
        <time>2026-07-09T10:23:04.000Z</time>
      </trkpt>
      <trkpt lat="48.24169" lon="7.14488">
        <ele>613</ele>
        <time>2026-07-09T10:28:24.000Z</time>
      </trkpt>
      <trkpt lat="48.2414" lon="7.14446">
        <ele>622</ele>
        <time>2026-07-09T10:30:43.000Z</time>
      </trkpt>
      <trkpt lat="48.24115" lon="7.14421">
        <ele>625</ele>
        <time>2026-07-09T10:31:48.000Z</time>
      </trkpt>
      <trkpt lat="48.24073" lon="7.144">
        <ele>634</ele>
        <time>2026-07-09T10:34:11.000Z</time>
      </trkpt>
      <trkpt lat="48.24073" lon="7.144">
        <ele>634</ele>
        <time>2026-07-09T10:34:11.000Z</time>
      </trkpt>
      <trkpt lat="48.2407" lon="7.14399">
        <ele>634</ele>
        <time>2026-07-09T10:34:15.000Z</time>
      </trkpt>
      <trkpt lat="48.24035" lon="7.14377">
        <ele>640</ele>
        <time>2026-07-09T10:36:00.000Z</time>
      </trkpt>
      <trkpt lat="48.2401" lon="7.14371">
        <ele>645</ele>
        <time>2026-07-09T10:37:21.000Z</time>
      </trkpt>
      <trkpt lat="48.23977" lon="7.14383">
        <ele>654</ele>
        <time>2026-07-09T10:39:32.000Z</time>
      </trkpt>
      <trkpt lat="48.23802" lon="7.14478">
        <ele>670</ele>
        <time>2026-07-09T10:45:49.000Z</time>
      </trkpt>
      <trkpt lat="48.2378" lon="7.14488">
        <ele>672</ele>
        <time>2026-07-09T10:46:36.000Z</time>
      </trkpt>
      <trkpt lat="48.23747" lon="7.14488">
        <ele>678</ele>
        <time>2026-07-09T10:48:15.000Z</time>
      </trkpt>
      <trkpt lat="48.23731" lon="7.14471">
        <ele>682</ele>
        <time>2026-07-09T10:49:18.000Z</time>
      </trkpt>
      <trkpt lat="48.2372" lon="7.14444">
        <ele>684</ele>
        <time>2026-07-09T10:50:03.000Z</time>
      </trkpt>
      <trkpt lat="48.23638" lon="7.14411">
        <ele>691</ele>
        <time>2026-07-09T10:52:53.000Z</time>
      </trkpt>
      <trkpt lat="48.23536" lon="7.14324">
        <ele>701</ele>
        <time>2026-07-09T10:56:50.000Z</time>
      </trkpt>
      <trkpt lat="48.23537" lon="7.14326">
        <ele>701</ele>
        <time>2026-07-09T10:56:52.000Z</time>
      </trkpt>
      <trkpt lat="48.23536" lon="7.14324">
        <ele>701</ele>
        <time>2026-07-09T10:56:54.000Z</time>
      </trkpt>
      <trkpt lat="48.23526" lon="7.14305">
        <ele>701</ele>
        <time>2026-07-09T10:57:12.000Z</time>
      </trkpt>
      <trkpt lat="48.23512" lon="7.14275">
        <ele>702</ele>
        <time>2026-07-09T10:57:50.000Z</time>
      </trkpt>
      <trkpt lat="48.23509" lon="7.14261">
        <ele>702</ele>
        <time>2026-07-09T10:58:01.000Z</time>
      </trkpt>
      <trkpt lat="48.23518" lon="7.14194">
        <ele>709</ele>
        <time>2026-07-09T11:00:05.000Z</time>
      </trkpt>
      <trkpt lat="48.23522" lon="7.14133">
        <ele>715</ele>
        <time>2026-07-09T11:01:54.000Z</time>
      </trkpt>
      <trkpt lat="48.23512" lon="7.14053">
        <ele>720</ele>
        <time>2026-07-09T11:03:47.000Z</time>
      </trkpt>
      <trkpt lat="48.23501" lon="7.14012">
        <ele>724</ele>
        <time>2026-07-09T11:05:02.000Z</time>
      </trkpt>
      <trkpt lat="48.2349" lon="7.13991">
        <ele>726</ele>
        <time>2026-07-09T11:05:43.000Z</time>
      </trkpt>
      <trkpt lat="48.23399" lon="7.13909">
        <ele>741</ele>
        <time>2026-07-09T11:10:19.000Z</time>
      </trkpt>
      <trkpt lat="48.23366" lon="7.13871">
        <ele>747</ele>
        <time>2026-07-09T11:12:08.000Z</time>
      </trkpt>
      <trkpt lat="48.23352" lon="7.13869">
        <ele>751</ele>
        <time>2026-07-09T11:13:05.000Z</time>
      </trkpt>
      <trkpt lat="48.23352" lon="7.13869">
        <ele>751</ele>
        <time>2026-07-09T11:13:05.000Z</time>
      </trkpt>
      <trkpt lat="48.23338" lon="7.13865">
        <ele>752</ele>
        <time>2026-07-09T11:13:32.000Z</time>
      </trkpt>
      <trkpt lat="48.23287" lon="7.13827">
        <ele>765</ele>
        <time>2026-07-09T11:16:51.000Z</time>
      </trkpt>
      <trkpt lat="48.23264" lon="7.13821">
        <ele>770</ele>
        <time>2026-07-09T11:18:10.000Z</time>
      </trkpt>
      <trkpt lat="48.23216" lon="7.13819">
        <ele>777</ele>
        <time>2026-07-09T11:20:17.000Z</time>
      </trkpt>
      <trkpt lat="48.23121" lon="7.13824">
        <ele>796</ele>
        <time>2026-07-09T11:25:21.000Z</time>
      </trkpt>
      <trkpt lat="48.23104" lon="7.13818">
        <ele>800</ele>
        <time>2026-07-09T11:26:22.000Z</time>
      </trkpt>
      <trkpt lat="48.23027" lon="7.13774">
        <ele>815</ele>
        <time>2026-07-09T11:30:31.000Z</time>
      </trkpt>
      <trkpt lat="48.23001" lon="7.13769">
        <ele>820</ele>
        <time>2026-07-09T11:31:52.000Z</time>
      </trkpt>
      <trkpt lat="48.22957" lon="7.13774">
        <ele>829</ele>
        <time>2026-07-09T11:34:16.000Z</time>
      </trkpt>
      <trkpt lat="48.2293" lon="7.13761">
        <ele>835</ele>
        <time>2026-07-09T11:35:50.000Z</time>
      </trkpt>
      <trkpt lat="48.22938" lon="7.13808">
        <ele>835</ele>
        <time>2026-07-09T11:36:27.000Z</time>
      </trkpt>
      <trkpt lat="48.22923" lon="7.13803">
        <ele>837</ele>
        <time>2026-07-09T11:37:05.000Z</time>
      </trkpt>
      <trkpt lat="48.22923" lon="7.13803">
        <ele>837</ele>
        <time>2026-07-09T11:37:05.000Z</time>
      </trkpt>
      <trkpt lat="48.22919" lon="7.13802">
        <ele>837</ele>
        <time>2026-07-09T11:37:10.000Z</time>
      </trkpt>
      <trkpt lat="48.22855" lon="7.13744">
        <ele>850</ele>
        <time>2026-07-09T11:40:49.000Z</time>
      </trkpt>
      <trkpt lat="48.2278" lon="7.13694">
        <ele>860</ele>
        <time>2026-07-09T11:44:06.000Z</time>
      </trkpt>
      <trkpt lat="48.22718" lon="7.13639">
        <ele>866</ele>
        <time>2026-07-09T11:46:29.000Z</time>
      </trkpt>
      <trkpt lat="48.22683" lon="7.1358">
        <ele>872</ele>
        <time>2026-07-09T11:48:31.000Z</time>
      </trkpt>
      <trkpt lat="48.22623" lon="7.13443">
        <ele>889</ele>
        <time>2026-07-09T11:53:31.000Z</time>
      </trkpt>
      <trkpt lat="48.22508" lon="7.13244">
        <ele>920</ele>
        <time>2026-07-09T12:02:11.000Z</time>
      </trkpt>
      <trkpt lat="48.22454" lon="7.13193">
        <ele>925</ele>
        <time>2026-07-09T12:04:15.000Z</time>
      </trkpt>
      <trkpt lat="48.22428" lon="7.13179">
        <ele>924</ele>
        <time>2026-07-09T12:04:47.000Z</time>
      </trkpt>
      <trkpt lat="48.22407" lon="7.13176">
        <ele>924</ele>
        <time>2026-07-09T12:05:11.000Z</time>
      </trkpt>
      <trkpt lat="48.22352" lon="7.13179">
        <ele>923</ele>
        <time>2026-07-09T12:06:14.000Z</time>
      </trkpt>
      <trkpt lat="48.22305" lon="7.13168">
        <ele>920</ele>
        <time>2026-07-09T12:07:08.000Z</time>
      </trkpt>
      <trkpt lat="48.2229" lon="7.13157">
        <ele>921</ele>
        <time>2026-07-09T12:07:38.000Z</time>
      </trkpt>
      <trkpt lat="48.22257" lon="7.1312">
        <ele>919</ele>
        <time>2026-07-09T12:08:25.000Z</time>
      </trkpt>
      <trkpt lat="48.22249" lon="7.13107">
        <ele>919</ele>
        <time>2026-07-09T12:08:38.000Z</time>
      </trkpt>
      <trkpt lat="48.22249" lon="7.13107">
        <ele>919</ele>
        <time>2026-07-09T12:08:38.000Z</time>
      </trkpt>
      <trkpt lat="48.22241" lon="7.13092">
        <ele>919</ele>
        <time>2026-07-09T12:08:53.000Z</time>
      </trkpt>
      <trkpt lat="48.22205" lon="7.13013">
        <ele>917</ele>
        <time>2026-07-09T12:10:06.000Z</time>
      </trkpt>
      <trkpt lat="48.22195" lon="7.12917">
        <ele>914</ele>
        <time>2026-07-09T12:11:20.000Z</time>
      </trkpt>
      <trkpt lat="48.22188" lon="7.12889">
        <ele>914</ele>
        <time>2026-07-09T12:11:43.000Z</time>
      </trkpt>
      <trkpt lat="48.22176" lon="7.12876">
        <ele>913</ele>
        <time>2026-07-09T12:12:01.000Z</time>
      </trkpt>
      <trkpt lat="48.22111" lon="7.12838">
        <ele>913</ele>
        <time>2026-07-09T12:13:21.000Z</time>
      </trkpt>
      <trkpt lat="48.22068" lon="7.12777">
        <ele>910</ele>
        <time>2026-07-09T12:14:28.000Z</time>
      </trkpt>
      <trkpt lat="48.22045" lon="7.1273">
        <ele>911</ele>
        <time>2026-07-09T12:15:23.000Z</time>
      </trkpt>
      <trkpt lat="48.22017" lon="7.12654">
        <ele>908</ele>
        <time>2026-07-09T12:16:29.000Z</time>
      </trkpt>
      <trkpt lat="48.21999" lon="7.12593">
        <ele>908</ele>
        <time>2026-07-09T12:17:19.000Z</time>
      </trkpt>
      <trkpt lat="48.21962" lon="7.12515">
        <ele>906</ele>
        <time>2026-07-09T12:18:32.000Z</time>
      </trkpt>
      <trkpt lat="48.21936" lon="7.12471">
        <ele>906</ele>
        <time>2026-07-09T12:19:17.000Z</time>
      </trkpt>
      <trkpt lat="48.21944" lon="7.12469">
        <ele>907</ele>
        <time>2026-07-09T12:19:37.000Z</time>
      </trkpt>
      <trkpt lat="48.21922" lon="7.12454">
        <ele>907</ele>
        <time>2026-07-09T12:20:05.000Z</time>
      </trkpt>
      <trkpt lat="48.21913" lon="7.12453">
        <ele>907</ele>
        <time>2026-07-09T12:20:15.000Z</time>
      </trkpt>
      <trkpt lat="48.21904" lon="7.12458">
        <ele>908</ele>
        <time>2026-07-09T12:20:36.000Z</time>
      </trkpt>
      <trkpt lat="48.21887" lon="7.1248">
        <ele>909</ele>
        <time>2026-07-09T12:21:12.000Z</time>
      </trkpt>
      <trkpt lat="48.21858" lon="7.12498">
        <ele>910</ele>
        <time>2026-07-09T12:21:59.000Z</time>
      </trkpt>
      <trkpt lat="48.21828" lon="7.12517">
        <ele>913</ele>
        <time>2026-07-09T12:23:06.000Z</time>
      </trkpt>
      <trkpt lat="48.21799" lon="7.1254">
        <ele>913</ele>
        <time>2026-07-09T12:23:44.000Z</time>
      </trkpt>
      <trkpt lat="48.21769" lon="7.12563">
        <ele>915</ele>
        <time>2026-07-09T12:24:43.000Z</time>
      </trkpt>
      <trkpt lat="48.21737" lon="7.12572">
        <ele>917</ele>
        <time>2026-07-09T12:25:41.000Z</time>
      </trkpt>
      <trkpt lat="48.21706" lon="7.12548">
        <ele>919</ele>
        <time>2026-07-09T12:26:41.000Z</time>
      </trkpt>
      <trkpt lat="48.21672" lon="7.12506">
        <ele>922</ele>
        <time>2026-07-09T12:28:02.000Z</time>
      </trkpt>
      <trkpt lat="48.21652" lon="7.12488">
        <ele>922</ele>
        <time>2026-07-09T12:28:28.000Z</time>
      </trkpt>
      <trkpt lat="48.21633" lon="7.12471">
        <ele>925</ele>
        <time>2026-07-09T12:29:25.000Z</time>
      </trkpt>
      <trkpt lat="48.21633" lon="7.12471">
        <ele>925</ele>
        <time>2026-07-09T12:29:25.000Z</time>
      </trkpt>
      <trkpt lat="48.21613" lon="7.12449">
        <ele>925</ele>
        <time>2026-07-09T12:29:54.000Z</time>
      </trkpt>
      <trkpt lat="48.21583" lon="7.12404">
        <ele>926</ele>
        <time>2026-07-09T12:30:53.000Z</time>
      </trkpt>
      <trkpt lat="48.21553" lon="7.12359">
        <ele>929</ele>
        <time>2026-07-09T12:32:12.000Z</time>
      </trkpt>
      <trkpt lat="48.21534" lon="7.1232">
        <ele>930</ele>
        <time>2026-07-09T12:32:59.000Z</time>
      </trkpt>
      <trkpt lat="48.21532" lon="7.12278">
        <ele>933</ele>
        <time>2026-07-09T12:34:02.000Z</time>
      </trkpt>
      <trkpt lat="48.2153" lon="7.12236">
        <ele>932</ele>
        <time>2026-07-09T12:34:34.000Z</time>
      </trkpt>
      <trkpt lat="48.21532" lon="7.12181">
        <ele>931</ele>
        <time>2026-07-09T12:35:16.000Z</time>
      </trkpt>
      <trkpt lat="48.21535" lon="7.12125">
        <ele>933</ele>
        <time>2026-07-09T12:36:19.000Z</time>
      </trkpt>
      <trkpt lat="48.21507" lon="7.12087">
        <ele>933</ele>
        <time>2026-07-09T12:37:02.000Z</time>
      </trkpt>
      <trkpt lat="48.2148" lon="7.12048">
        <ele>934</ele>
        <time>2026-07-09T12:37:55.000Z</time>
      </trkpt>
      <trkpt lat="48.21453" lon="7.1201">
        <ele>934</ele>
        <time>2026-07-09T12:38:38.000Z</time>
      </trkpt>
      <trkpt lat="48.21425" lon="7.11971">
        <ele>939</ele>
        <time>2026-07-09T12:40:12.000Z</time>
      </trkpt>
      <trkpt lat="48.21389" lon="7.11934">
        <ele>938</ele>
        <time>2026-07-09T12:41:02.000Z</time>
      </trkpt>
      <trkpt lat="48.2136" lon="7.11914">
        <ele>938</ele>
        <time>2026-07-09T12:41:39.000Z</time>
      </trkpt>
      <trkpt lat="48.21331" lon="7.11894">
        <ele>940</ele>
        <time>2026-07-09T12:42:36.000Z</time>
      </trkpt>
      <trkpt lat="48.21302" lon="7.11873">
        <ele>940</ele>
        <time>2026-07-09T12:43:13.000Z</time>
      </trkpt>
      <trkpt lat="48.21275" lon="7.11824">
        <ele>944</ele>
        <time>2026-07-09T12:44:43.000Z</time>
      </trkpt>
      <trkpt lat="48.21248" lon="7.11787">
        <ele>948</ele>
        <time>2026-07-09T12:46:06.000Z</time>
      </trkpt>
      <trkpt lat="48.21222" lon="7.11763">
        <ele>947</ele>
        <time>2026-07-09T12:46:41.000Z</time>
      </trkpt>
      <trkpt lat="48.21192" lon="7.11754">
        <ele>944</ele>
        <time>2026-07-09T12:47:16.000Z</time>
      </trkpt>
      <trkpt lat="48.21161" lon="7.11746">
        <ele>951</ele>
        <time>2026-07-09T12:49:03.000Z</time>
      </trkpt>
      <trkpt lat="48.21131" lon="7.11737">
        <ele>949</ele>
        <time>2026-07-09T12:49:38.000Z</time>
      </trkpt>
      <trkpt lat="48.21095" lon="7.11707">
        <ele>950</ele>
        <time>2026-07-09T12:50:36.000Z</time>
      </trkpt>
      <trkpt lat="48.21061" lon="7.11689">
        <ele>952</ele>
        <time>2026-07-09T12:51:38.000Z</time>
      </trkpt>
      <trkpt lat="48.21027" lon="7.11659">
        <ele>953</ele>
        <time>2026-07-09T12:52:33.000Z</time>
      </trkpt>
      <trkpt lat="48.20998" lon="7.11638">
        <ele>952</ele>
        <time>2026-07-09T12:53:10.000Z</time>
      </trkpt>
      <trkpt lat="48.20969" lon="7.11617">
        <ele>954</ele>
        <time>2026-07-09T12:54:08.000Z</time>
      </trkpt>
      <trkpt lat="48.20964" lon="7.11637">
        <ele>953</ele>
        <time>2026-07-09T12:54:24.000Z</time>
      </trkpt>
      <trkpt lat="48.20964" lon="7.11637">
        <ele>953</ele>
        <time>2026-07-09T12:54:24.000Z</time>
      </trkpt>
      <trkpt lat="48.20964" lon="7.11637">
        <ele>953</ele>
        <time>2026-07-09T12:54:24.000Z</time>
      </trkpt>
      <trkpt lat="48.20956" lon="7.11669">
        <ele>953</ele>
        <time>2026-07-09T12:54:51.000Z</time>
      </trkpt>
      <trkpt lat="48.20927" lon="7.11786">
        <ele>950</ele>
        <time>2026-07-09T12:56:26.000Z</time>
      </trkpt>
      <trkpt lat="48.20915" lon="7.11823">
        <ele>951</ele>
        <time>2026-07-09T12:57:08.000Z</time>
      </trkpt>
      <trkpt lat="48.20883" lon="7.11884">
        <ele>948</ele>
        <time>2026-07-09T12:58:07.000Z</time>
      </trkpt>
      <trkpt lat="48.2084" lon="7.11944">
        <ele>951</ele>
        <time>2026-07-09T12:59:45.000Z</time>
      </trkpt>
      <trkpt lat="48.20829" lon="7.11956">
        <ele>951</ele>
        <time>2026-07-09T13:00:01.000Z</time>
      </trkpt>
      <trkpt lat="48.20818" lon="7.11955">
        <ele>952</ele>
        <time>2026-07-09T13:00:24.000Z</time>
      </trkpt>
      <trkpt lat="48.20818" lon="7.11955">
        <ele>952</ele>
        <time>2026-07-09T13:00:24.000Z</time>
      </trkpt>
      <trkpt lat="48.20818" lon="7.11955">
        <ele>952</ele>
        <time>2026-07-09T13:00:24.000Z</time>
      </trkpt>
      <trkpt lat="48.20809" lon="7.11943">
        <ele>953</ele>
        <time>2026-07-09T13:00:48.000Z</time>
      </trkpt>
      <trkpt lat="48.20803" lon="7.11927">
        <ele>955</ele>
        <time>2026-07-09T13:01:23.000Z</time>
      </trkpt>
      <trkpt lat="48.208" lon="7.119">
        <ele>955</ele>
        <time>2026-07-09T13:01:44.000Z</time>
      </trkpt>
      <trkpt lat="48.20793" lon="7.11878">
        <ele>955</ele>
        <time>2026-07-09T13:02:02.000Z</time>
      </trkpt>
      <trkpt lat="48.20768" lon="7.11818">
        <ele>953</ele>
        <time>2026-07-09T13:02:57.000Z</time>
      </trkpt>
      <trkpt lat="48.20736" lon="7.11764">
        <ele>951</ele>
        <time>2026-07-09T13:03:52.000Z</time>
      </trkpt>
      <trkpt lat="48.20702" lon="7.11729">
        <ele>950</ele>
        <time>2026-07-09T13:04:39.000Z</time>
      </trkpt>
      <trkpt lat="48.20669" lon="7.11707">
        <ele>945</ele>
        <time>2026-07-09T13:05:20.000Z</time>
      </trkpt>
      <trkpt lat="48.20605" lon="7.11649">
        <ele>944</ele>
        <time>2026-07-09T13:06:46.000Z</time>
      </trkpt>
      <trkpt lat="48.20549" lon="7.11615">
        <ele>942</ele>
        <time>2026-07-09T13:07:56.000Z</time>
      </trkpt>
      <trkpt lat="48.20534" lon="7.11613">
        <ele>940</ele>
        <time>2026-07-09T13:08:13.000Z</time>
      </trkpt>
      <trkpt lat="48.20484" lon="7.11628">
        <ele>938</ele>
        <time>2026-07-09T13:09:12.000Z</time>
      </trkpt>
      <trkpt lat="48.20468" lon="7.11629">
        <ele>938</ele>
        <time>2026-07-09T13:09:30.000Z</time>
      </trkpt>
      <trkpt lat="48.20457" lon="7.11625">
        <ele>938</ele>
        <time>2026-07-09T13:09:43.000Z</time>
      </trkpt>
      <trkpt lat="48.20446" lon="7.11612">
        <ele>937</ele>
        <time>2026-07-09T13:09:59.000Z</time>
      </trkpt>
      <trkpt lat="48.20446" lon="7.11612">
        <ele>937</ele>
        <time>2026-07-09T13:09:59.000Z</time>
      </trkpt>
      <trkpt lat="48.20446" lon="7.11612">
        <ele>937</ele>
        <time>2026-07-09T13:09:59.000Z</time>
      </trkpt>
      <trkpt lat="48.20368" lon="7.11438">
        <ele>929</ele>
        <time>2026-07-09T13:12:39.000Z</time>
      </trkpt>
      <trkpt lat="48.20369" lon="7.1136">
        <ele>939</ele>
        <time>2026-07-09T13:15:21.000Z</time>
      </trkpt>
      <trkpt lat="48.20364" lon="7.11291">
        <ele>945</ele>
        <time>2026-07-09T13:17:15.000Z</time>
      </trkpt>
      <trkpt lat="48.20351" lon="7.11186">
        <ele>954</ele>
        <time>2026-07-09T13:20:09.000Z</time>
      </trkpt>
      <trkpt lat="48.2034" lon="7.11143">
        <ele>956</ele>
        <time>2026-07-09T13:21:05.000Z</time>
      </trkpt>
      <trkpt lat="48.20309" lon="7.11067">
        <ele>967</ele>
        <time>2026-07-09T13:24:06.000Z</time>
      </trkpt>
      <trkpt lat="48.20305" lon="7.11041">
        <ele>970</ele>
        <time>2026-07-09T13:24:57.000Z</time>
      </trkpt>
      <trkpt lat="48.2027" lon="7.10959">
        <ele>975</ele>
        <time>2026-07-09T13:27:03.000Z</time>
      </trkpt>
      <trkpt lat="48.20224" lon="7.10869">
        <ele>987</ele>
        <time>2026-07-09T13:30:34.000Z</time>
      </trkpt>
      <trkpt lat="48.2015" lon="7.10758">
        <ele>998</ele>
        <time>2026-07-09T13:34:26.000Z</time>
      </trkpt>
      <trkpt lat="48.20118" lon="7.10721">
        <ele>1002</ele>
        <time>2026-07-09T13:35:53.000Z</time>
      </trkpt>
      <trkpt lat="48.20104" lon="7.10718">
        <ele>1004</ele>
        <time>2026-07-09T13:36:30.000Z</time>
      </trkpt>
      <trkpt lat="48.20064" lon="7.10718">
        <ele>1006</ele>
        <time>2026-07-09T13:37:37.000Z</time>
      </trkpt>
      <trkpt lat="48.20041" lon="7.10712">
        <ele>1006</ele>
        <time>2026-07-09T13:38:03.000Z</time>
      </trkpt>
      <trkpt lat="48.20008" lon="7.10699">
        <ele>1008</ele>
        <time>2026-07-09T13:39:03.000Z</time>
      </trkpt>
      <trkpt lat="48.19968" lon="7.1067">
        <ele>1008</ele>
        <time>2026-07-09T13:39:54.000Z</time>
      </trkpt>
      <trkpt lat="48.19962" lon="7.10671">
        <ele>1008</ele>
        <time>2026-07-09T13:40:01.000Z</time>
      </trkpt>
      <trkpt lat="48.1995" lon="7.10681">
        <ele>1008</ele>
        <time>2026-07-09T13:40:17.000Z</time>
      </trkpt>
      <trkpt lat="48.19941" lon="7.10692">
        <ele>1008</ele>
        <time>2026-07-09T13:40:30.000Z</time>
      </trkpt>
      <trkpt lat="48.19937" lon="7.10703">
        <ele>1008</ele>
        <time>2026-07-09T13:40:40.000Z</time>
      </trkpt>
      <trkpt lat="48.19927" lon="7.10692">
        <ele>1009</ele>
        <time>2026-07-09T13:41:05.000Z</time>
      </trkpt>
      <trkpt lat="48.19902" lon="7.10719">
        <ele>1012</ele>
        <time>2026-07-09T13:42:11.000Z</time>
      </trkpt>
      <trkpt lat="48.19868" lon="7.1075">
        <ele>1020</ele>
        <time>2026-07-09T13:44:20.000Z</time>
      </trkpt>
      <trkpt lat="48.19833" lon="7.10782">
        <ele>1027</ele>
        <time>2026-07-09T13:46:18.000Z</time>
      </trkpt>
      <trkpt lat="48.19798" lon="7.10813">
        <ele>1034</ele>
        <time>2026-07-09T13:48:16.000Z</time>
      </trkpt>
      <trkpt lat="48.19778" lon="7.10823">
        <ele>1036</ele>
        <time>2026-07-09T13:49:01.000Z</time>
      </trkpt>
      <trkpt lat="48.19763" lon="7.10819">
        <ele>1036</ele>
        <time>2026-07-09T13:49:18.000Z</time>
      </trkpt>
      <trkpt lat="48.19728" lon="7.10797">
        <ele>1037</ele>
        <time>2026-07-09T13:50:12.000Z</time>
      </trkpt>
      <trkpt lat="48.19693" lon="7.10775">
        <ele>1039</ele>
        <time>2026-07-09T13:51:16.000Z</time>
      </trkpt>
      <trkpt lat="48.19658" lon="7.10753">
        <ele>1043</ele>
        <time>2026-07-09T13:52:41.000Z</time>
      </trkpt>
      <trkpt lat="48.19648" lon="7.1077">
        <ele>1043</ele>
        <time>2026-07-09T13:52:59.000Z</time>
      </trkpt>
      <trkpt lat="48.19648" lon="7.10771">
        <ele>1043</ele>
        <time>2026-07-09T13:52:59.000Z</time>
      </trkpt>
      <trkpt lat="48.19627" lon="7.10805">
        <ele>1043</ele>
        <time>2026-07-09T13:53:35.000Z</time>
      </trkpt>
      <trkpt lat="48.19589" lon="7.10828">
        <ele>1041</ele>
        <time>2026-07-09T13:54:21.000Z</time>
      </trkpt>
      <trkpt lat="48.19556" lon="7.10843">
        <ele>1039</ele>
        <time>2026-07-09T13:55:01.000Z</time>
      </trkpt>
      <trkpt lat="48.19522" lon="7.10858">
        <ele>1037</ele>
        <time>2026-07-09T13:55:41.000Z</time>
      </trkpt>
      <trkpt lat="48.19493" lon="7.10859">
        <ele>1031</ele>
        <time>2026-07-09T13:56:14.000Z</time>
      </trkpt>
      <trkpt lat="48.19464" lon="7.10859">
        <ele>1028</ele>
        <time>2026-07-09T13:56:47.000Z</time>
      </trkpt>
      <trkpt lat="48.19449" lon="7.10879">
        <ele>1025</ele>
        <time>2026-07-09T13:57:11.000Z</time>
      </trkpt>
      <trkpt lat="48.19444" lon="7.10917">
        <ele>1019</ele>
        <time>2026-07-09T13:57:41.000Z</time>
      </trkpt>
      <trkpt lat="48.19442" lon="7.10953">
        <ele>1013</ele>
        <time>2026-07-09T13:58:08.000Z</time>
      </trkpt>
      <trkpt lat="48.19441" lon="7.10989">
        <ele>1008</ele>
        <time>2026-07-09T13:58:35.000Z</time>
      </trkpt>
      <trkpt lat="48.19432" lon="7.11003">
        <ele>1006</ele>
        <time>2026-07-09T13:58:50.000Z</time>
      </trkpt>
      <trkpt lat="48.19409" lon="7.11019">
        <ele>1001</ele>
        <time>2026-07-09T13:59:19.000Z</time>
      </trkpt>
      <trkpt lat="48.19387" lon="7.11036">
        <ele>997</ele>
        <time>2026-07-09T13:59:48.000Z</time>
      </trkpt>
      <trkpt lat="48.19385" lon="7.11049">
        <ele>996</ele>
        <time>2026-07-09T13:59:58.000Z</time>
      </trkpt>
      <trkpt lat="48.19375" lon="7.11041">
        <ele>995</ele>
        <time>2026-07-09T14:00:11.000Z</time>
      </trkpt>
      <trkpt lat="48.1935" lon="7.11031">
        <ele>987</ele>
        <time>2026-07-09T14:00:41.000Z</time>
      </trkpt>
      <trkpt lat="48.19356" lon="7.11087">
        <ele>982</ele>
        <time>2026-07-09T14:01:24.000Z</time>
      </trkpt>
      <trkpt lat="48.19364" lon="7.11101">
        <ele>981</ele>
        <time>2026-07-09T14:01:38.000Z</time>
      </trkpt>
      <trkpt lat="48.19383" lon="7.11124">
        <ele>977</ele>
        <time>2026-07-09T14:02:06.000Z</time>
      </trkpt>
      <trkpt lat="48.19391" lon="7.11152">
        <ele>969</ele>
        <time>2026-07-09T14:02:30.000Z</time>
      </trkpt>
      <trkpt lat="48.19402" lon="7.11166">
        <ele>969</ele>
        <time>2026-07-09T14:02:46.000Z</time>
      </trkpt>
      <trkpt lat="48.1942" lon="7.11175">
        <ele>962</ele>
        <time>2026-07-09T14:03:08.000Z</time>
      </trkpt>
      <trkpt lat="48.19444" lon="7.11181">
        <ele>960</ele>
        <time>2026-07-09T14:03:35.000Z</time>
      </trkpt>
      <trkpt lat="48.19476" lon="7.11158">
        <ele>956</ele>
        <time>2026-07-09T14:04:16.000Z</time>
      </trkpt>
      <trkpt lat="48.19508" lon="7.11134">
        <ele>948</ele>
        <time>2026-07-09T14:04:57.000Z</time>
      </trkpt>
      <trkpt lat="48.19542" lon="7.11093">
        <ele>941</ele>
        <time>2026-07-09T14:05:47.000Z</time>
      </trkpt>
      <trkpt lat="48.19547" lon="7.11092">
        <ele>938</ele>
        <time>2026-07-09T14:05:53.000Z</time>
      </trkpt>
      <trkpt lat="48.19548" lon="7.11099">
        <ele>937</ele>
        <time>2026-07-09T14:05:58.000Z</time>
      </trkpt>
      <trkpt lat="48.1953" lon="7.11157">
        <ele>932</ele>
        <time>2026-07-09T14:06:47.000Z</time>
      </trkpt>
      <trkpt lat="48.19512" lon="7.11215">
        <ele>926</ele>
        <time>2026-07-09T14:07:36.000Z</time>
      </trkpt>
      <trkpt lat="48.19494" lon="7.11272">
        <ele>917</ele>
        <time>2026-07-09T14:08:25.000Z</time>
      </trkpt>
      <trkpt lat="48.19464" lon="7.11317">
        <ele>909</ele>
        <time>2026-07-09T14:09:14.000Z</time>
      </trkpt>
      <trkpt lat="48.19477" lon="7.11313">
        <ele>909</ele>
        <time>2026-07-09T14:09:30.000Z</time>
      </trkpt>
      <trkpt lat="48.195" lon="7.11298">
        <ele>908</ele>
        <time>2026-07-09T14:09:59.000Z</time>
      </trkpt>
      <trkpt lat="48.19525" lon="7.11268">
        <ele>906</ele>
        <time>2026-07-09T14:10:35.000Z</time>
      </trkpt>
      <trkpt lat="48.1955" lon="7.11239">
        <ele>905</ele>
        <time>2026-07-09T14:11:11.000Z</time>
      </trkpt>
      <trkpt lat="48.19575" lon="7.1121">
        <ele>901</ele>
        <time>2026-07-09T14:11:47.000Z</time>
      </trkpt>
      <trkpt lat="48.19607" lon="7.11197">
        <ele>900</ele>
        <time>2026-07-09T14:12:26.000Z</time>
      </trkpt>
      <trkpt lat="48.19617" lon="7.11182">
        <ele>897</ele>
        <time>2026-07-09T14:12:42.000Z</time>
      </trkpt>
      <trkpt lat="48.19628" lon="7.1115">
        <ele>896</ele>
        <time>2026-07-09T14:13:09.000Z</time>
      </trkpt>
      <trkpt lat="48.19636" lon="7.11139">
        <ele>896</ele>
        <time>2026-07-09T14:13:22.000Z</time>
      </trkpt>
      <trkpt lat="48.19648" lon="7.11137">
        <ele>896</ele>
        <time>2026-07-09T14:13:35.000Z</time>
      </trkpt>
      <trkpt lat="48.19666" lon="7.11171">
        <ele>890</ele>
        <time>2026-07-09T14:14:08.000Z</time>
      </trkpt>
      <trkpt lat="48.19684" lon="7.11187">
        <ele>886</ele>
        <time>2026-07-09T14:14:32.000Z</time>
      </trkpt>
      <trkpt lat="48.19717" lon="7.11203">
        <ele>882</ele>
        <time>2026-07-09T14:15:11.000Z</time>
      </trkpt>
      <trkpt lat="48.19739" lon="7.11222">
        <ele>880</ele>
        <time>2026-07-09T14:15:41.000Z</time>
      </trkpt>
      <trkpt lat="48.19717" lon="7.11229">
        <ele>875</ele>
        <time>2026-07-09T14:16:07.000Z</time>
      </trkpt>
      <trkpt lat="48.19695" lon="7.11236">
        <ele>872</ele>
        <time>2026-07-09T14:16:33.000Z</time>
      </trkpt>
      <trkpt lat="48.19716" lon="7.11263">
        <ele>870</ele>
        <time>2026-07-09T14:17:05.000Z</time>
      </trkpt>
      <trkpt lat="48.19716" lon="7.11263">
        <ele>870</ele>
        <time>2026-07-09T14:17:05.000Z</time>
      </trkpt>
      <trkpt lat="48.19695" lon="7.11236">
        <ele>872</ele>
        <time>2026-07-09T14:17:58.000Z</time>
      </trkpt>
      <trkpt lat="48.19717" lon="7.11229">
        <ele>875</ele>
        <time>2026-07-09T14:18:55.000Z</time>
      </trkpt>
      <trkpt lat="48.19739" lon="7.11222">
        <ele>880</ele>
        <time>2026-07-09T14:20:12.000Z</time>
      </trkpt>
      <trkpt lat="48.19717" lon="7.11203">
        <ele>882</ele>
        <time>2026-07-09T14:21:02.000Z</time>
      </trkpt>
      <trkpt lat="48.19684" lon="7.11187">
        <ele>886</ele>
        <time>2026-07-09T14:22:22.000Z</time>
      </trkpt>
      <trkpt lat="48.19666" lon="7.11171">
        <ele>890</ele>
        <time>2026-07-09T14:23:28.000Z</time>
      </trkpt>
      <trkpt lat="48.19648" lon="7.11137">
        <ele>896</ele>
        <time>2026-07-09T14:25:03.000Z</time>
      </trkpt>
      <trkpt lat="48.19636" lon="7.11139">
        <ele>896</ele>
        <time>2026-07-09T14:25:16.000Z</time>
      </trkpt>
      <trkpt lat="48.19628" lon="7.1115">
        <ele>896</ele>
        <time>2026-07-09T14:25:29.000Z</time>
      </trkpt>
      <trkpt lat="48.19617" lon="7.11182">
        <ele>897</ele>
        <time>2026-07-09T14:26:07.000Z</time>
      </trkpt>
      <trkpt lat="48.19607" lon="7.11197">
        <ele>900</ele>
        <time>2026-07-09T14:26:53.000Z</time>
      </trkpt>
      <trkpt lat="48.19575" lon="7.1121">
        <ele>901</ele>
        <time>2026-07-09T14:27:42.000Z</time>
      </trkpt>
      <trkpt lat="48.1955" lon="7.11239">
        <ele>905</ele>
        <time>2026-07-09T14:28:59.000Z</time>
      </trkpt>
      <trkpt lat="48.19525" lon="7.11268">
        <ele>907</ele>
        <time>2026-07-09T14:29:56.000Z</time>
      </trkpt>
      <trkpt lat="48.195" lon="7.11297">
        <ele>909</ele>
        <time>2026-07-09T14:30:53.000Z</time>
      </trkpt>
      <trkpt lat="48.19477" lon="7.11313">
        <ele>909</ele>
        <time>2026-07-09T14:31:22.000Z</time>
      </trkpt>
      <trkpt lat="48.19464" lon="7.11317">
        <ele>909</ele>
        <time>2026-07-09T14:31:38.000Z</time>
      </trkpt>
      <trkpt lat="48.19494" lon="7.11272">
        <ele>917</ele>
        <time>2026-07-09T14:33:49.000Z</time>
      </trkpt>
      <trkpt lat="48.19512" lon="7.11214">
        <ele>926</ele>
        <time>2026-07-09T14:36:10.000Z</time>
      </trkpt>
      <trkpt lat="48.1953" lon="7.11157">
        <ele>932</ele>
        <time>2026-07-09T14:38:00.000Z</time>
      </trkpt>
      <trkpt lat="48.19548" lon="7.11099">
        <ele>937</ele>
        <time>2026-07-09T14:39:40.000Z</time>
      </trkpt>
      <trkpt lat="48.19547" lon="7.11092">
        <ele>938</ele>
        <time>2026-07-09T14:39:55.000Z</time>
      </trkpt>
      <trkpt lat="48.19542" lon="7.11093">
        <ele>941</ele>
        <time>2026-07-09T14:40:32.000Z</time>
      </trkpt>
      <trkpt lat="48.19508" lon="7.11134">
        <ele>948</ele>
        <time>2026-07-09T14:42:34.000Z</time>
      </trkpt>
      <trkpt lat="48.19476" lon="7.11157">
        <ele>956</ele>
        <time>2026-07-09T14:44:37.000Z</time>
      </trkpt>
      <trkpt lat="48.19444" lon="7.11181">
        <ele>960</ele>
        <time>2026-07-09T14:45:59.000Z</time>
      </trkpt>
      <trkpt lat="48.19435" lon="7.11179">
        <ele>961</ele>
        <time>2026-07-09T14:46:20.000Z</time>
      </trkpt>
      <trkpt lat="48.19402" lon="7.11166">
        <ele>969</ele>
        <time>2026-07-09T14:48:21.000Z</time>
      </trkpt>
      <trkpt lat="48.19391" lon="7.11152">
        <ele>969</ele>
        <time>2026-07-09T14:48:37.000Z</time>
      </trkpt>
      <trkpt lat="48.19383" lon="7.11124">
        <ele>978</ele>
        <time>2026-07-09T14:50:33.000Z</time>
      </trkpt>
      <trkpt lat="48.19364" lon="7.11101">
        <ele>981</ele>
        <time>2026-07-09T14:51:31.000Z</time>
      </trkpt>
      <trkpt lat="48.19356" lon="7.11086">
        <ele>982</ele>
        <time>2026-07-09T14:51:56.000Z</time>
      </trkpt>
      <trkpt lat="48.1935" lon="7.11031">
        <ele>987</ele>
        <time>2026-07-09T14:53:30.000Z</time>
      </trkpt>
      <trkpt lat="48.19375" lon="7.11041">
        <ele>995</ele>
        <time>2026-07-09T14:55:22.000Z</time>
      </trkpt>
      <trkpt lat="48.19385" lon="7.11049">
        <ele>996</ele>
        <time>2026-07-09T14:55:45.000Z</time>
      </trkpt>
      <trkpt lat="48.19387" lon="7.11036">
        <ele>997</ele>
        <time>2026-07-09T14:56:05.000Z</time>
      </trkpt>
      <trkpt lat="48.19409" lon="7.11019">
        <ele>1001</ele>
        <time>2026-07-09T14:57:15.000Z</time>
      </trkpt>
      <trkpt lat="48.19432" lon="7.11002">
        <ele>1006</ele>
        <time>2026-07-09T14:58:35.000Z</time>
      </trkpt>
      <trkpt lat="48.19441" lon="7.10989">
        <ele>1008</ele>
        <time>2026-07-09T14:59:10.000Z</time>
      </trkpt>
      <trkpt lat="48.19442" lon="7.10953">
        <ele>1013</ele>
        <time>2026-07-09T15:00:29.000Z</time>
      </trkpt>
      <trkpt lat="48.19444" lon="7.10917">
        <ele>1019</ele>
        <time>2026-07-09T15:01:58.000Z</time>
      </trkpt>
      <trkpt lat="48.19449" lon="7.10879">
        <ele>1025</ele>
        <time>2026-07-09T15:03:29.000Z</time>
      </trkpt>
      <trkpt lat="48.19449" lon="7.10879">
        <ele>1025</ele>
        <time>2026-07-09T15:03:29.000Z</time>
      </trkpt>
      <trkpt lat="48.19465" lon="7.10859">
        <ele>1028</ele>
        <time>2026-07-09T15:04:23.000Z</time>
      </trkpt>
      <trkpt lat="48.19494" lon="7.10859">
        <ele>1032</ele>
        <time>2026-07-09T15:05:37.000Z</time>
      </trkpt>
      <trkpt lat="48.19523" lon="7.10858">
        <ele>1037</ele>
        <time>2026-07-09T15:07:02.000Z</time>
      </trkpt>
      <trkpt lat="48.19556" lon="7.10843">
        <ele>1039</ele>
        <time>2026-07-09T15:08:03.000Z</time>
      </trkpt>
      <trkpt lat="48.1959" lon="7.10828">
        <ele>1041</ele>
        <time>2026-07-09T15:09:04.000Z</time>
      </trkpt>
      <trkpt lat="48.19627" lon="7.10805">
        <ele>1043</ele>
        <time>2026-07-09T15:10:11.000Z</time>
      </trkpt>
      <trkpt lat="48.19643" lon="7.10779">
        <ele>1044</ele>
        <time>2026-07-09T15:10:48.000Z</time>
      </trkpt>
      <trkpt lat="48.19659" lon="7.10753">
        <ele>1043</ele>
        <time>2026-07-09T15:11:15.000Z</time>
      </trkpt>
      <trkpt lat="48.19684" lon="7.10769">
        <ele>1039</ele>
        <time>2026-07-09T15:11:46.000Z</time>
      </trkpt>
      <trkpt lat="48.19684" lon="7.10769">
        <ele>1039</ele>
        <time>2026-07-09T15:11:46.000Z</time>
      </trkpt>
      <trkpt lat="48.19683" lon="7.10769">
        <ele>1039</ele>
        <time>2026-07-09T15:11:46.000Z</time>
      </trkpt>
      <trkpt lat="48.19723" lon="7.10794">
        <ele>1037</ele>
        <time>2026-07-09T15:12:36.000Z</time>
      </trkpt>
      <trkpt lat="48.19763" lon="7.10819">
        <ele>1036</ele>
        <time>2026-07-09T15:13:26.000Z</time>
      </trkpt>
      <trkpt lat="48.19781" lon="7.10823">
        <ele>1036</ele>
        <time>2026-07-09T15:13:46.000Z</time>
      </trkpt>
      <trkpt lat="48.19798" lon="7.10813">
        <ele>1034</ele>
        <time>2026-07-09T15:14:07.000Z</time>
      </trkpt>
      <trkpt lat="48.19836" lon="7.10779">
        <ele>1026</ele>
        <time>2026-07-09T15:14:58.000Z</time>
      </trkpt>
      <trkpt lat="48.19875" lon="7.10745">
        <ele>1018</ele>
        <time>2026-07-09T15:15:49.000Z</time>
      </trkpt>
      <trkpt lat="48.19875" lon="7.10745">
        <ele>1018</ele>
        <time>2026-07-09T15:15:49.000Z</time>
      </trkpt>
      <trkpt lat="48.19875" lon="7.10745">
        <ele>1018</ele>
        <time>2026-07-09T15:15:49.000Z</time>
      </trkpt>
      <trkpt lat="48.19901" lon="7.10718">
        <ele>1012</ele>
        <time>2026-07-09T15:16:25.000Z</time>
      </trkpt>
      <trkpt lat="48.19927" lon="7.10692">
        <ele>1009</ele>
        <time>2026-07-09T15:17:01.000Z</time>
      </trkpt>
      <trkpt lat="48.19937" lon="7.10703">
        <ele>1008</ele>
        <time>2026-07-09T15:17:15.000Z</time>
      </trkpt>
      <trkpt lat="48.19941" lon="7.10691">
        <ele>1008</ele>
        <time>2026-07-09T15:17:25.000Z</time>
      </trkpt>
      <trkpt lat="48.19962" lon="7.10671">
        <ele>1008</ele>
        <time>2026-07-09T15:17:54.000Z</time>
      </trkpt>
      <trkpt lat="48.19968" lon="7.1067">
        <ele>1008</ele>
        <time>2026-07-09T15:18:01.000Z</time>
      </trkpt>
      <trkpt lat="48.20008" lon="7.10699">
        <ele>1008</ele>
        <time>2026-07-09T15:18:52.000Z</time>
      </trkpt>
      <trkpt lat="48.20041" lon="7.10712">
        <ele>1006</ele>
        <time>2026-07-09T15:19:31.000Z</time>
      </trkpt>
      <trkpt lat="48.20064" lon="7.10718">
        <ele>1006</ele>
        <time>2026-07-09T15:19:57.000Z</time>
      </trkpt>
      <trkpt lat="48.20098" lon="7.10717">
        <ele>1004</ele>
        <time>2026-07-09T15:20:36.000Z</time>
      </trkpt>
      <trkpt lat="48.20118" lon="7.10721">
        <ele>1002</ele>
        <time>2026-07-09T15:21:00.000Z</time>
      </trkpt>
      <trkpt lat="48.20141" lon="7.10748">
        <ele>1000</ele>
        <time>2026-07-09T15:21:33.000Z</time>
      </trkpt>
      <trkpt lat="48.20163" lon="7.10774">
        <ele>997</ele>
        <time>2026-07-09T15:22:06.000Z</time>
      </trkpt>
      <trkpt lat="48.20194" lon="7.10821">
        <ele>993</ele>
        <time>2026-07-09T15:22:56.000Z</time>
      </trkpt>
      <trkpt lat="48.20224" lon="7.10868">
        <ele>987</ele>
        <time>2026-07-09T15:23:46.000Z</time>
      </trkpt>
      <trkpt lat="48.20247" lon="7.10914">
        <ele>980</ele>
        <time>2026-07-09T15:24:30.000Z</time>
      </trkpt>
      <trkpt lat="48.2027" lon="7.10959">
        <ele>975</ele>
        <time>2026-07-09T15:25:14.000Z</time>
      </trkpt>
      <trkpt lat="48.20288" lon="7.11">
        <ele>971</ele>
        <time>2026-07-09T15:25:51.000Z</time>
      </trkpt>
      <trkpt lat="48.20305" lon="7.11041">
        <ele>970</ele>
        <time>2026-07-09T15:26:28.000Z</time>
      </trkpt>
      <trkpt lat="48.20309" lon="7.11067">
        <ele>967</ele>
        <time>2026-07-09T15:26:48.000Z</time>
      </trkpt>
      <trkpt lat="48.20325" lon="7.11105">
        <ele>963</ele>
        <time>2026-07-09T15:27:22.000Z</time>
      </trkpt>
      <trkpt lat="48.2034" lon="7.11143">
        <ele>956</ele>
        <time>2026-07-09T15:27:56.000Z</time>
      </trkpt>
      <trkpt lat="48.20351" lon="7.11186">
        <ele>954</ele>
        <time>2026-07-09T15:28:32.000Z</time>
      </trkpt>
      <trkpt lat="48.20358" lon="7.11239">
        <ele>949</ele>
        <time>2026-07-09T15:29:13.000Z</time>
      </trkpt>
      <trkpt lat="48.20364" lon="7.11291">
        <ele>945</ele>
        <time>2026-07-09T15:29:54.000Z</time>
      </trkpt>
      <trkpt lat="48.20367" lon="7.11326">
        <ele>939</ele>
        <time>2026-07-09T15:30:20.000Z</time>
      </trkpt>
      <trkpt lat="48.20369" lon="7.1136">
        <ele>939</ele>
        <time>2026-07-09T15:30:46.000Z</time>
      </trkpt>
      <trkpt lat="48.20369" lon="7.11399">
        <ele>932</ele>
        <time>2026-07-09T15:31:16.000Z</time>
      </trkpt>
      <trkpt lat="48.20368" lon="7.11438">
        <ele>929</ele>
        <time>2026-07-09T15:31:46.000Z</time>
      </trkpt>
      <trkpt lat="48.20377" lon="7.11487">
        <ele>924</ele>
        <time>2026-07-09T15:32:25.000Z</time>
      </trkpt>
      <trkpt lat="48.20386" lon="7.11536">
        <ele>919</ele>
        <time>2026-07-09T15:33:04.000Z</time>
      </trkpt>
      <trkpt lat="48.20394" lon="7.11585">
        <ele>910</ele>
        <time>2026-07-09T15:33:43.000Z</time>
      </trkpt>
      <trkpt lat="48.20403" lon="7.11634">
        <ele>908</ele>
        <time>2026-07-09T15:34:22.000Z</time>
      </trkpt>
      <trkpt lat="48.20414" lon="7.11674">
        <ele>906</ele>
        <time>2026-07-09T15:34:56.000Z</time>
      </trkpt>
      <trkpt lat="48.20417" lon="7.11684">
        <ele>904</ele>
        <time>2026-07-09T15:35:04.000Z</time>
      </trkpt>
      <trkpt lat="48.20432" lon="7.11703">
        <ele>902</ele>
        <time>2026-07-09T15:35:27.000Z</time>
      </trkpt>
      <trkpt lat="48.20462" lon="7.11721">
        <ele>898</ele>
        <time>2026-07-09T15:36:03.000Z</time>
      </trkpt>
      <trkpt lat="48.20462" lon="7.11721">
        <ele>898</ele>
        <time>2026-07-09T15:36:03.000Z</time>
      </trkpt>
      <trkpt lat="48.20462" lon="7.11721">
        <ele>898</ele>
        <time>2026-07-09T15:36:03.000Z</time>
      </trkpt>
      <trkpt lat="48.20484" lon="7.11732">
        <ele>895</ele>
        <time>2026-07-09T15:36:30.000Z</time>
      </trkpt>
      <trkpt lat="48.20534" lon="7.11743">
        <ele>888</ele>
        <time>2026-07-09T15:37:28.000Z</time>
      </trkpt>
      <trkpt lat="48.20558" lon="7.11761">
        <ele>885</ele>
        <time>2026-07-09T15:37:58.000Z</time>
      </trkpt>
      <trkpt lat="48.20574" lon="7.11781">
        <ele>883</ele>
        <time>2026-07-09T15:38:22.000Z</time>
      </trkpt>
      <trkpt lat="48.20617" lon="7.11846">
        <ele>877</ele>
        <time>2026-07-09T15:39:32.000Z</time>
      </trkpt>
      <trkpt lat="48.2065" lon="7.11889">
        <ele>870</ele>
        <time>2026-07-09T15:40:23.000Z</time>
      </trkpt>
      <trkpt lat="48.20675" lon="7.1194">
        <ele>866</ele>
        <time>2026-07-09T15:41:11.000Z</time>
      </trkpt>
      <trkpt lat="48.20702" lon="7.1204">
        <ele>865</ele>
        <time>2026-07-09T15:42:34.000Z</time>
      </trkpt>
      <trkpt lat="48.20708" lon="7.12088">
        <ele>862</ele>
        <time>2026-07-09T15:43:11.000Z</time>
      </trkpt>
      <trkpt lat="48.20717" lon="7.12115">
        <ele>861</ele>
        <time>2026-07-09T15:43:34.000Z</time>
      </trkpt>
      <trkpt lat="48.20744" lon="7.12147">
        <ele>860</ele>
        <time>2026-07-09T15:44:14.000Z</time>
      </trkpt>
      <trkpt lat="48.20838" lon="7.12218">
        <ele>858</ele>
        <time>2026-07-09T15:46:14.000Z</time>
      </trkpt>
      <trkpt lat="48.20838" lon="7.12219">
        <ele>858</ele>
        <time>2026-07-09T15:46:14.000Z</time>
      </trkpt>
      <trkpt lat="48.20843" lon="7.12222">
        <ele>857</ele>
        <time>2026-07-09T15:46:21.000Z</time>
      </trkpt>
      <trkpt lat="48.2086" lon="7.12231">
        <ele>855</ele>
        <time>2026-07-09T15:46:42.000Z</time>
      </trkpt>
      <trkpt lat="48.20882" lon="7.12233">
        <ele>856</ele>
        <time>2026-07-09T15:47:17.000Z</time>
      </trkpt>
      <trkpt lat="48.20903" lon="7.1222">
        <ele>856</ele>
        <time>2026-07-09T15:47:43.000Z</time>
      </trkpt>
      <trkpt lat="48.20919" lon="7.122">
        <ele>853</ele>
        <time>2026-07-09T15:48:06.000Z</time>
      </trkpt>
      <trkpt lat="48.2095" lon="7.12138">
        <ele>851</ele>
        <time>2026-07-09T15:49:06.000Z</time>
      </trkpt>
      <trkpt lat="48.20977" lon="7.12044">
        <ele>851</ele>
        <time>2026-07-09T15:50:24.000Z</time>
      </trkpt>
      <trkpt lat="48.2099" lon="7.12011">
        <ele>848</ele>
        <time>2026-07-09T15:50:54.000Z</time>
      </trkpt>
      <trkpt lat="48.2103" lon="7.11951">
        <ele>846</ele>
        <time>2026-07-09T15:51:59.000Z</time>
      </trkpt>
      <trkpt lat="48.21045" lon="7.11935">
        <ele>845</ele>
        <time>2026-07-09T15:52:20.000Z</time>
      </trkpt>
      <trkpt lat="48.21071" lon="7.11934">
        <ele>844</ele>
        <time>2026-07-09T15:52:50.000Z</time>
      </trkpt>
      <trkpt lat="48.21146" lon="7.1196">
        <ele>840</ele>
        <time>2026-07-09T15:54:18.000Z</time>
      </trkpt>
      <trkpt lat="48.21156" lon="7.11975">
        <ele>840</ele>
        <time>2026-07-09T15:54:35.000Z</time>
      </trkpt>
      <trkpt lat="48.21165" lon="7.12006">
        <ele>839</ele>
        <time>2026-07-09T15:55:01.000Z</time>
      </trkpt>
      <trkpt lat="48.21223" lon="7.12093">
        <ele>835</ele>
        <time>2026-07-09T15:56:35.000Z</time>
      </trkpt>
      <trkpt lat="48.21256" lon="7.12115">
        <ele>833</ele>
        <time>2026-07-09T15:57:16.000Z</time>
      </trkpt>
      <trkpt lat="48.213" lon="7.1213">
        <ele>831</ele>
        <time>2026-07-09T15:58:08.000Z</time>
      </trkpt>
      <trkpt lat="48.21311" lon="7.12164">
        <ele>832</ele>
        <time>2026-07-09T15:58:47.000Z</time>
      </trkpt>
      <trkpt lat="48.21342" lon="7.12227">
        <ele>830</ele>
        <time>2026-07-09T15:59:47.000Z</time>
      </trkpt>
      <trkpt lat="48.21351" lon="7.12351">
        <ele>824</ele>
        <time>2026-07-09T16:01:23.000Z</time>
      </trkpt>
      <trkpt lat="48.21367" lon="7.1242">
        <ele>825</ele>
        <time>2026-07-09T16:02:29.000Z</time>
      </trkpt>
      <trkpt lat="48.21394" lon="7.125">
        <ele>820</ele>
        <time>2026-07-09T16:03:37.000Z</time>
      </trkpt>
      <trkpt lat="48.2142" lon="7.12627">
        <ele>816</ele>
        <time>2026-07-09T16:05:18.000Z</time>
      </trkpt>
      <trkpt lat="48.21426" lon="7.12642">
        <ele>815</ele>
        <time>2026-07-09T16:05:32.000Z</time>
      </trkpt>
      <trkpt lat="48.21435" lon="7.12655">
        <ele>813</ele>
        <time>2026-07-09T16:05:47.000Z</time>
      </trkpt>
      <trkpt lat="48.21435" lon="7.12655">
        <ele>813</ele>
        <time>2026-07-09T16:05:47.000Z</time>
      </trkpt>
      <trkpt lat="48.21445" lon="7.12665">
        <ele>811</ele>
        <time>2026-07-09T16:06:01.000Z</time>
      </trkpt>
      <trkpt lat="48.21516" lon="7.127">
        <ele>811</ele>
        <time>2026-07-09T16:07:26.000Z</time>
      </trkpt>
      <trkpt lat="48.21554" lon="7.12724">
        <ele>810</ele>
        <time>2026-07-09T16:08:14.000Z</time>
      </trkpt>
      <trkpt lat="48.2158" lon="7.12773">
        <ele>807</ele>
        <time>2026-07-09T16:09:01.000Z</time>
      </trkpt>
      <trkpt lat="48.21616" lon="7.12867">
        <ele>805</ele>
        <time>2026-07-09T16:10:24.000Z</time>
      </trkpt>
      <trkpt lat="48.21709" lon="7.12998">
        <ele>798</ele>
        <time>2026-07-09T16:12:49.000Z</time>
      </trkpt>
      <trkpt lat="48.21808" lon="7.13082">
        <ele>793</ele>
        <time>2026-07-09T16:15:00.000Z</time>
      </trkpt>
      <trkpt lat="48.21834" lon="7.13088">
        <ele>790</ele>
        <time>2026-07-09T16:15:29.000Z</time>
      </trkpt>
      <trkpt lat="48.21849" lon="7.13097">
        <ele>790</ele>
        <time>2026-07-09T16:15:47.000Z</time>
      </trkpt>
      <trkpt lat="48.21861" lon="7.13113">
        <ele>791</ele>
        <time>2026-07-09T16:16:16.000Z</time>
      </trkpt>
      <trkpt lat="48.21885" lon="7.13126">
        <ele>789</ele>
        <time>2026-07-09T16:16:45.000Z</time>
      </trkpt>
      <trkpt lat="48.21907" lon="7.13126">
        <ele>790</ele>
        <time>2026-07-09T16:17:20.000Z</time>
      </trkpt>
      <trkpt lat="48.21941" lon="7.13117">
        <ele>788</ele>
        <time>2026-07-09T16:17:59.000Z</time>
      </trkpt>
      <trkpt lat="48.21962" lon="7.13151">
        <ele>789</ele>
        <time>2026-07-09T16:18:45.000Z</time>
      </trkpt>
      <trkpt lat="48.21962" lon="7.13151">
        <ele>789</ele>
        <time>2026-07-09T16:18:45.000Z</time>
      </trkpt>
      <trkpt lat="48.21976" lon="7.13177">
        <ele>789</ele>
        <time>2026-07-09T16:19:10.000Z</time>
      </trkpt>
      <trkpt lat="48.2203" lon="7.13296">
        <ele>788</ele>
        <time>2026-07-09T16:20:59.000Z</time>
      </trkpt>
      <trkpt lat="48.22046" lon="7.13351">
        <ele>790</ele>
        <time>2026-07-09T16:22:06.000Z</time>
      </trkpt>
      <trkpt lat="48.22065" lon="7.1338">
        <ele>790</ele>
        <time>2026-07-09T16:22:37.000Z</time>
      </trkpt>
      <trkpt lat="48.22106" lon="7.13423">
        <ele>787</ele>
        <time>2026-07-09T16:23:34.000Z</time>
      </trkpt>
      <trkpt lat="48.22151" lon="7.13452">
        <ele>787</ele>
        <time>2026-07-09T16:24:30.000Z</time>
      </trkpt>
      <trkpt lat="48.22181" lon="7.13485">
        <ele>786</ele>
        <time>2026-07-09T16:25:13.000Z</time>
      </trkpt>
      <trkpt lat="48.22181" lon="7.13485">
        <ele>786</ele>
        <time>2026-07-09T16:25:13.000Z</time>
      </trkpt>
      <trkpt lat="48.22204" lon="7.13503">
        <ele>787</ele>
        <time>2026-07-09T16:25:53.000Z</time>
      </trkpt>
      <trkpt lat="48.22222" lon="7.13509">
        <ele>785</ele>
        <time>2026-07-09T16:26:14.000Z</time>
      </trkpt>
      <trkpt lat="48.22233" lon="7.13503">
        <ele>785</ele>
        <time>2026-07-09T16:26:28.000Z</time>
      </trkpt>
      <trkpt lat="48.2225" lon="7.1349">
        <ele>783</ele>
        <time>2026-07-09T16:26:50.000Z</time>
      </trkpt>
      <trkpt lat="48.22269" lon="7.1346">
        <ele>783</ele>
        <time>2026-07-09T16:27:21.000Z</time>
      </trkpt>
      <trkpt lat="48.22282" lon="7.13451">
        <ele>782</ele>
        <time>2026-07-09T16:27:37.000Z</time>
      </trkpt>
      <trkpt lat="48.22302" lon="7.13457">
        <ele>779</ele>
        <time>2026-07-09T16:28:00.000Z</time>
      </trkpt>
      <trkpt lat="48.22332" lon="7.13472">
        <ele>779</ele>
        <time>2026-07-09T16:28:36.000Z</time>
      </trkpt>
      <trkpt lat="48.22355" lon="7.13491">
        <ele>776</ele>
        <time>2026-07-09T16:29:07.000Z</time>
      </trkpt>
      <trkpt lat="48.22364" lon="7.13523">
        <ele>775</ele>
        <time>2026-07-09T16:29:34.000Z</time>
      </trkpt>
      <trkpt lat="48.22364" lon="7.13554">
        <ele>774</ele>
        <time>2026-07-09T16:29:57.000Z</time>
      </trkpt>
      <trkpt lat="48.22358" lon="7.136">
        <ele>775</ele>
        <time>2026-07-09T16:30:43.000Z</time>
      </trkpt>
      <trkpt lat="48.22362" lon="7.13625">
        <ele>771</ele>
        <time>2026-07-09T16:31:03.000Z</time>
      </trkpt>
      <trkpt lat="48.22371" lon="7.13631">
        <ele>769</ele>
        <time>2026-07-09T16:31:15.000Z</time>
      </trkpt>
      <trkpt lat="48.22425" lon="7.13625">
        <ele>766</ele>
        <time>2026-07-09T16:32:16.000Z</time>
      </trkpt>
      <trkpt lat="48.22436" lon="7.13636">
        <ele>765</ele>
        <time>2026-07-09T16:32:32.000Z</time>
      </trkpt>
      <trkpt lat="48.22447" lon="7.13671">
        <ele>763</ele>
        <time>2026-07-09T16:33:01.000Z</time>
      </trkpt>
      <trkpt lat="48.22451" lon="7.13713">
        <ele>761</ele>
        <time>2026-07-09T16:33:34.000Z</time>
      </trkpt>
      <trkpt lat="48.22448" lon="7.13778">
        <ele>757</ele>
        <time>2026-07-09T16:34:23.000Z</time>
      </trkpt>
      <trkpt lat="48.22446" lon="7.13787">
        <ele>755</ele>
        <time>2026-07-09T16:34:30.000Z</time>
      </trkpt>
      <trkpt lat="48.22441" lon="7.13791">
        <ele>753</ele>
        <time>2026-07-09T16:34:36.000Z</time>
      </trkpt>
      <trkpt lat="48.22446" lon="7.13835">
        <ele>750</ele>
        <time>2026-07-09T16:35:10.000Z</time>
      </trkpt>
      <trkpt lat="48.22458" lon="7.13866">
        <ele>747</ele>
        <time>2026-07-09T16:35:38.000Z</time>
      </trkpt>
      <trkpt lat="48.22501" lon="7.13946">
        <ele>738</ele>
        <time>2026-07-09T16:36:56.000Z</time>
      </trkpt>
      <trkpt lat="48.22566" lon="7.14044">
        <ele>730</ele>
        <time>2026-07-09T16:38:41.000Z</time>
      </trkpt>
      <trkpt lat="48.22566" lon="7.14044">
        <ele>730</ele>
        <time>2026-07-09T16:38:41.000Z</time>
      </trkpt>
      <trkpt lat="48.22571" lon="7.1405">
        <ele>729</ele>
        <time>2026-07-09T16:38:49.000Z</time>
      </trkpt>
      <trkpt lat="48.22595" lon="7.14064">
        <ele>729</ele>
        <time>2026-07-09T16:39:19.000Z</time>
      </trkpt>
      <trkpt lat="48.22615" lon="7.14084">
        <ele>725</ele>
        <time>2026-07-09T16:39:47.000Z</time>
      </trkpt>
      <trkpt lat="48.22641" lon="7.14133">
        <ele>723</ele>
        <time>2026-07-09T16:40:34.000Z</time>
      </trkpt>
      <trkpt lat="48.22684" lon="7.14197">
        <ele>715</ele>
        <time>2026-07-09T16:41:44.000Z</time>
      </trkpt>
      <trkpt lat="48.22698" lon="7.14213">
        <ele>711</ele>
        <time>2026-07-09T16:42:04.000Z</time>
      </trkpt>
      <trkpt lat="48.22708" lon="7.14219">
        <ele>710</ele>
        <time>2026-07-09T16:42:15.000Z</time>
      </trkpt>
      <trkpt lat="48.22741" lon="7.14219">
        <ele>707</ele>
        <time>2026-07-09T16:42:53.000Z</time>
      </trkpt>
      <trkpt lat="48.22751" lon="7.14226">
        <ele>706</ele>
        <time>2026-07-09T16:43:06.000Z</time>
      </trkpt>
      <trkpt lat="48.22762" lon="7.14242">
        <ele>706</ele>
        <time>2026-07-09T16:43:24.000Z</time>
      </trkpt>
      <trkpt lat="48.22838" lon="7.14355">
        <ele>705</ele>
        <time>2026-07-09T16:45:27.000Z</time>
      </trkpt>
      <trkpt lat="48.22932" lon="7.14542">
        <ele>701</ele>
        <time>2026-07-09T16:48:26.000Z</time>
      </trkpt>
      <trkpt lat="48.22975" lon="7.14611">
        <ele>696</ele>
        <time>2026-07-09T16:49:39.000Z</time>
      </trkpt>
      <trkpt lat="48.22987" lon="7.14621">
        <ele>695</ele>
        <time>2026-07-09T16:49:54.000Z</time>
      </trkpt>
      <trkpt lat="48.22998" lon="7.14622">
        <ele>695</ele>
        <time>2026-07-09T16:50:06.000Z</time>
      </trkpt>
      <trkpt lat="48.23037" lon="7.14611">
        <ele>695</ele>
        <time>2026-07-09T16:50:51.000Z</time>
      </trkpt>
      <trkpt lat="48.23037" lon="7.14611">
        <ele>695</ele>
        <time>2026-07-09T16:50:51.000Z</time>
      </trkpt>
      <trkpt lat="48.23041" lon="7.146">
        <ele>696</ele>
        <time>2026-07-09T16:51:12.000Z</time>
      </trkpt>
      <trkpt lat="48.23088" lon="7.14569">
        <ele>703</ele>
        <time>2026-07-09T16:53:23.000Z</time>
      </trkpt>
      <trkpt lat="48.23101" lon="7.14564">
        <ele>705</ele>
        <time>2026-07-09T16:53:59.000Z</time>
      </trkpt>
      <trkpt lat="48.23174" lon="7.14552">
        <ele>718</ele>
        <time>2026-07-09T16:57:37.000Z</time>
      </trkpt>
      <trkpt lat="48.23187" lon="7.14555">
        <ele>721</ele>
        <time>2026-07-09T16:58:23.000Z</time>
      </trkpt>
      <trkpt lat="48.23236" lon="7.14584">
        <ele>727</ele>
        <time>2026-07-09T17:00:25.000Z</time>
      </trkpt>
      <trkpt lat="48.233" lon="7.1463">
        <ele>737</ele>
        <time>2026-07-09T17:03:30.000Z</time>
      </trkpt>
      <trkpt lat="48.2331" lon="7.14633">
        <ele>739</ele>
        <time>2026-07-09T17:04:02.000Z</time>
      </trkpt>
      <trkpt lat="48.23314" lon="7.14626">
        <ele>740</ele>
        <time>2026-07-09T17:04:19.000Z</time>
      </trkpt>
      <trkpt lat="48.23311" lon="7.14516">
        <ele>752</ele>
        <time>2026-07-09T17:07:46.000Z</time>
      </trkpt>
      <trkpt lat="48.23323" lon="7.14448">
        <ele>758</ele>
        <time>2026-07-09T17:09:42.000Z</time>
      </trkpt>
      <trkpt lat="48.23324" lon="7.14398">
        <ele>760</ele>
        <time>2026-07-09T17:10:40.000Z</time>
      </trkpt>
      <trkpt lat="48.23333" lon="7.14336">
        <ele>756</ele>
        <time>2026-07-09T17:11:28.000Z</time>
      </trkpt>
      <trkpt lat="48.23345" lon="7.14303">
        <ele>755</ele>
        <time>2026-07-09T17:11:57.000Z</time>
      </trkpt>
      <trkpt lat="48.23348" lon="7.1435">
        <ele>753</ele>
        <time>2026-07-09T17:12:34.000Z</time>
      </trkpt>
      <trkpt lat="48.23348" lon="7.1435">
        <ele>753</ele>
        <time>2026-07-09T17:12:34.000Z</time>
      </trkpt>
      <trkpt lat="48.23347" lon="7.14348">
        <ele>753</ele>
        <time>2026-07-09T17:12:36.000Z</time>
      </trkpt>
      <trkpt lat="48.23345" lon="7.14303">
        <ele>755</ele>
        <time>2026-07-09T17:13:31.000Z</time>
      </trkpt>
      <trkpt lat="48.23353" lon="7.14271">
        <ele>753</ele>
        <time>2026-07-09T17:13:57.000Z</time>
      </trkpt>
      <trkpt lat="48.23425" lon="7.14112">
        <ele>755</ele>
        <time>2026-07-09T17:16:44.000Z</time>
      </trkpt>
      <trkpt lat="48.23429" lon="7.14075">
        <ele>755</ele>
        <time>2026-07-09T17:17:12.000Z</time>
      </trkpt>
      <trkpt lat="48.23429" lon="7.14044">
        <ele>755</ele>
        <time>2026-07-09T17:17:36.000Z</time>
      </trkpt>
      <trkpt lat="48.23421" lon="7.14">
        <ele>754</ele>
        <time>2026-07-09T17:18:10.000Z</time>
      </trkpt>
      <trkpt lat="48.23413" lon="7.1398">
        <ele>753</ele>
        <time>2026-07-09T17:18:28.000Z</time>
      </trkpt>
      <trkpt lat="48.23364" lon="7.13894">
        <ele>750</ele>
        <time>2026-07-09T17:19:54.000Z</time>
      </trkpt>
      <trkpt lat="48.23359" lon="7.13872">
        <ele>748</ele>
        <time>2026-07-09T17:20:12.000Z</time>
      </trkpt>
      <trkpt lat="48.23316" lon="7.13762">
        <ele>746</ele>
        <time>2026-07-09T17:21:49.000Z</time>
      </trkpt>
      <trkpt lat="48.23314" lon="7.13735">
        <ele>746</ele>
        <time>2026-07-09T17:22:09.000Z</time>
      </trkpt>
      <trkpt lat="48.2332" lon="7.13728">
        <ele>746</ele>
        <time>2026-07-09T17:22:18.000Z</time>
      </trkpt>
      <trkpt lat="48.23347" lon="7.1373">
        <ele>746</ele>
        <time>2026-07-09T17:22:48.000Z</time>
      </trkpt>
      <trkpt lat="48.2339" lon="7.13741">
        <ele>750</ele>
        <time>2026-07-09T17:24:19.000Z</time>
      </trkpt>
      <trkpt lat="48.23406" lon="7.13751">
        <ele>750</ele>
        <time>2026-07-09T17:24:39.000Z</time>
      </trkpt>
      <trkpt lat="48.23428" lon="7.13755">
        <ele>754</ele>
        <time>2026-07-09T17:25:46.000Z</time>
      </trkpt>
      <trkpt lat="48.23436" lon="7.13752">
        <ele>753</ele>
        <time>2026-07-09T17:25:55.000Z</time>
      </trkpt>
      <trkpt lat="48.23445" lon="7.13731">
        <ele>754</ele>
        <time>2026-07-09T17:26:24.000Z</time>
      </trkpt>
      <trkpt lat="48.2345" lon="7.13683">
        <ele>759</ele>
        <time>2026-07-09T17:27:53.000Z</time>
      </trkpt>
      <trkpt lat="48.2346" lon="7.13654">
        <ele>761</ele>
        <time>2026-07-09T17:28:38.000Z</time>
      </trkpt>
      <trkpt lat="48.23475" lon="7.13685">
        <ele>760</ele>
        <time>2026-07-09T17:29:07.000Z</time>
      </trkpt>
      <trkpt lat="48.23475" lon="7.13685">
        <ele>760</ele>
        <time>2026-07-09T17:29:07.000Z</time>
      </trkpt>
      <trkpt lat="48.2346" lon="7.13654">
        <ele>761</ele>
        <time>2026-07-09T17:29:46.000Z</time>
      </trkpt>
      <trkpt lat="48.23465" lon="7.13648">
        <ele>762</ele>
        <time>2026-07-09T17:30:04.000Z</time>
      </trkpt>
      <trkpt lat="48.23475" lon="7.13646">
        <ele>764</ele>
        <time>2026-07-09T17:30:36.000Z</time>
      </trkpt>
      <trkpt lat="48.23506" lon="7.13671">
        <ele>769</ele>
        <time>2026-07-09T17:32:08.000Z</time>
      </trkpt>
      <trkpt lat="48.23611" lon="7.13763">
        <ele>785</ele>
        <time>2026-07-09T17:37:11.000Z</time>
      </trkpt>
      <trkpt lat="48.23662" lon="7.13815">
        <ele>793</ele>
        <time>2026-07-09T17:39:44.000Z</time>
      </trkpt>
      <trkpt lat="48.23696" lon="7.13827">
        <ele>798</ele>
        <time>2026-07-09T17:41:15.000Z</time>
      </trkpt>
      <trkpt lat="48.23731" lon="7.13829">
        <ele>799</ele>
        <time>2026-07-09T17:42:05.000Z</time>
      </trkpt>
      <trkpt lat="48.23731" lon="7.13829">
        <ele>799</ele>
        <time>2026-07-09T17:42:05.000Z</time>
      </trkpt>
      <trkpt lat="48.23734" lon="7.13829">
        <ele>799</ele>
        <time>2026-07-09T17:42:09.000Z</time>
      </trkpt>
      <trkpt lat="48.23783" lon="7.138">
        <ele>799</ele>
        <time>2026-07-09T17:43:09.000Z</time>
      </trkpt>
      <trkpt lat="48.23896" lon="7.137">
        <ele>789</ele>
        <time>2026-07-09T17:45:40.000Z</time>
      </trkpt>
      <trkpt lat="48.23927" lon="7.13684">
        <ele>787</ele>
        <time>2026-07-09T17:46:17.000Z</time>
      </trkpt>
      <trkpt lat="48.23946" lon="7.13666">
        <ele>785</ele>
        <time>2026-07-09T17:46:44.000Z</time>
      </trkpt>
      <trkpt lat="48.23964" lon="7.13635">
        <ele>786</ele>
        <time>2026-07-09T17:47:26.000Z</time>
      </trkpt>
      <trkpt lat="48.2398" lon="7.13598">
        <ele>783</ele>
        <time>2026-07-09T17:47:59.000Z</time>
      </trkpt>
      <trkpt lat="48.24031" lon="7.1345">
        <ele>780</ele>
        <time>2026-07-09T17:50:06.000Z</time>
      </trkpt>
      <trkpt lat="48.24048" lon="7.13433">
        <ele>777</ele>
        <time>2026-07-09T17:50:29.000Z</time>
      </trkpt>
      <trkpt lat="48.24078" lon="7.13415">
        <ele>776</ele>
        <time>2026-07-09T17:51:05.000Z</time>
      </trkpt>
      <trkpt lat="48.24116" lon="7.13411">
        <ele>777</ele>
        <time>2026-07-09T17:51:59.000Z</time>
      </trkpt>
      <trkpt lat="48.24169" lon="7.13383">
        <ele>778</ele>
        <time>2026-07-09T17:53:13.000Z</time>
      </trkpt>
      <trkpt lat="48.242" lon="7.13372">
        <ele>776</ele>
        <time>2026-07-09T17:53:50.000Z</time>
      </trkpt>
      <trkpt lat="48.242" lon="7.13372">
        <ele>776</ele>
        <time>2026-07-09T17:53:50.000Z</time>
      </trkpt>
      <trkpt lat="48.24217" lon="7.13365">
        <ele>775</ele>
        <time>2026-07-09T17:54:10.000Z</time>
      </trkpt>
      <trkpt lat="48.24228" lon="7.13359">
        <ele>774</ele>
        <time>2026-07-09T17:54:23.000Z</time>
      </trkpt>
      <trkpt lat="48.24217" lon="7.13413">
        <ele>771</ele>
        <time>2026-07-09T17:55:06.000Z</time>
      </trkpt>
      <trkpt lat="48.24251" lon="7.13435">
        <ele>769</ele>
        <time>2026-07-09T17:55:49.000Z</time>
      </trkpt>
      <trkpt lat="48.24292" lon="7.13447">
        <ele>765</ele>
        <time>2026-07-09T17:56:37.000Z</time>
      </trkpt>
      <trkpt lat="48.2428" lon="7.13453">
        <ele>766</ele>
        <time>2026-07-09T17:57:02.000Z</time>
      </trkpt>
      <trkpt lat="48.2428" lon="7.13453">
        <ele>766</ele>
        <time>2026-07-09T17:57:02.000Z</time>
      </trkpt>
      <trkpt lat="48.24284" lon="7.13451">
        <ele>766</ele>
        <time>2026-07-09T17:57:07.000Z</time>
      </trkpt>
      <trkpt lat="48.24292" lon="7.13447">
        <ele>765</ele>
        <time>2026-07-09T17:57:17.000Z</time>
      </trkpt>
      <trkpt lat="48.24316" lon="7.13446">
        <ele>762</ele>
        <time>2026-07-09T17:57:44.000Z</time>
      </trkpt>
      <trkpt lat="48.24332" lon="7.13452">
        <ele>760</ele>
        <time>2026-07-09T17:58:03.000Z</time>
      </trkpt>
      <trkpt lat="48.24342" lon="7.13469">
        <ele>757</ele>
        <time>2026-07-09T17:58:21.000Z</time>
      </trkpt>
      <trkpt lat="48.24343" lon="7.1353">
        <ele>752</ele>
        <time>2026-07-09T17:59:07.000Z</time>
      </trkpt>
      <trkpt lat="48.2434" lon="7.13551">
        <ele>748</ele>
        <time>2026-07-09T17:59:23.000Z</time>
      </trkpt>
      <trkpt lat="48.24333" lon="7.1356">
        <ele>746</ele>
        <time>2026-07-09T17:59:34.000Z</time>
      </trkpt>
      <trkpt lat="48.24303" lon="7.13577">
        <ele>737</ele>
        <time>2026-07-09T18:00:11.000Z</time>
      </trkpt>
      <trkpt lat="48.24281" lon="7.13598">
        <ele>732</ele>
        <time>2026-07-09T18:00:40.000Z</time>
      </trkpt>
      <trkpt lat="48.24253" lon="7.1364">
        <ele>725</ele>
        <time>2026-07-09T18:01:26.000Z</time>
      </trkpt>
      <trkpt lat="48.24233" lon="7.13661">
        <ele>722</ele>
        <time>2026-07-09T18:01:54.000Z</time>
      </trkpt>
      <trkpt lat="48.24153" lon="7.13722">
        <ele>717</ele>
        <time>2026-07-09T18:03:37.000Z</time>
      </trkpt>
      <trkpt lat="48.24134" lon="7.13806">
        <ele>707</ele>
        <time>2026-07-09T18:04:44.000Z</time>
      </trkpt>
      <trkpt lat="48.2414" lon="7.13862">
        <ele>702</ele>
        <time>2026-07-09T18:05:28.000Z</time>
      </trkpt>
      <trkpt lat="48.2413" lon="7.1386">
        <ele>702</ele>
        <time>2026-07-09T18:05:40.000Z</time>
      </trkpt>
      <trkpt lat="48.24173" lon="7.13998">
        <ele>688</ele>
        <time>2026-07-09T18:07:36.000Z</time>
      </trkpt>
      <trkpt lat="48.24209" lon="7.14139">
        <ele>674</ele>
        <time>2026-07-09T18:09:31.000Z</time>
      </trkpt>
      <trkpt lat="48.24209" lon="7.14118">
        <ele>677</ele>
        <time>2026-07-09T18:10:18.000Z</time>
      </trkpt>
      <trkpt lat="48.24203" lon="7.14118">
        <ele>676</ele>
        <time>2026-07-09T18:10:25.000Z</time>
      </trkpt>
      <trkpt lat="48.24191" lon="7.14111">
        <ele>676</ele>
        <time>2026-07-09T18:10:40.000Z</time>
      </trkpt>
      <trkpt lat="48.24117" lon="7.14033">
        <ele>666</ele>
        <time>2026-07-09T18:12:23.000Z</time>
      </trkpt>
      <trkpt lat="48.24106" lon="7.14028">
        <ele>663</ele>
        <time>2026-07-09T18:12:36.000Z</time>
      </trkpt>
      <trkpt lat="48.24094" lon="7.14037">
        <ele>663</ele>
        <time>2026-07-09T18:12:52.000Z</time>
      </trkpt>
      <trkpt lat="48.24074" lon="7.141">
        <ele>656</ele>
        <time>2026-07-09T18:13:45.000Z</time>
      </trkpt>
      <trkpt lat="48.24056" lon="7.14127">
        <ele>654</ele>
        <time>2026-07-09T18:14:14.000Z</time>
      </trkpt>
      <trkpt lat="48.24" lon="7.14156">
        <ele>645</ele>
        <time>2026-07-09T18:15:22.000Z</time>
      </trkpt>
      <trkpt lat="48.23951" lon="7.1417">
        <ele>639</ele>
        <time>2026-07-09T18:16:19.000Z</time>
      </trkpt>
      <trkpt lat="48.23933" lon="7.14189">
        <ele>638</ele>
        <time>2026-07-09T18:16:44.000Z</time>
      </trkpt>
      <trkpt lat="48.23918" lon="7.14227">
        <ele>634</ele>
        <time>2026-07-09T18:17:18.000Z</time>
      </trkpt>
      <trkpt lat="48.23926" lon="7.14219">
        <ele>633</ele>
        <time>2026-07-09T18:17:29.000Z</time>
      </trkpt>
      <trkpt lat="48.23926" lon="7.14219">
        <ele>633</ele>
        <time>2026-07-09T18:17:29.000Z</time>
      </trkpt>
      <trkpt lat="48.23926" lon="7.14219">
        <ele>633</ele>
        <time>2026-07-09T18:17:29.000Z</time>
      </trkpt>
      <trkpt lat="48.23951" lon="7.14201">
        <ele>631</ele>
        <time>2026-07-09T18:18:01.000Z</time>
      </trkpt>
      <trkpt lat="48.24037" lon="7.14197">
        <ele>626</ele>
        <time>2026-07-09T18:19:39.000Z</time>
      </trkpt>
      <trkpt lat="48.24102" lon="7.14224">
        <ele>618</ele>
        <time>2026-07-09T18:20:57.000Z</time>
      </trkpt>
      <trkpt lat="48.24107" lon="7.1423">
        <ele>618</ele>
        <time>2026-07-09T18:21:04.000Z</time>
      </trkpt>
      <trkpt lat="48.24107" lon="7.14238">
        <ele>618</ele>
        <time>2026-07-09T18:21:10.000Z</time>
      </trkpt>
    </trkseg>
  </trk>
</gpx>